CheckWX is a tool to help pilots better visualize weather data.  It is not intended as a substitute for an official pre-flight weather briefing.

01:07:26 UTC

SBBV TAF
Atlas Brasil Cantanhede Airport
Boa Vista, Brazil
TAF SBBV 232200Z 2400/2424 09012KT CAVOK TN25/2406Z TX35/2419Z BECMG 2413/2415 09016KT 9999 FEW035 PROB30 TEMPO 2417/2419 BKN035 FEW040TCU RMK PEM

Feb-24@
00:00 UTC

Feb-24 @ 00:00 UTC

Feb-24@
13:00 UTC

Feb-24 @ 13:00 UTC

TAF SBBV 232200Z 2400/2424 09012KT CAVOK TN25/2406Z TX35/2419Z
Wind
  • 090° at 12 KTS
Cloud Levels
  • No significant clouds

Feb-24@
13:00 UTC

Feb-24 @ 13:00 UTC

Feb-25@
00:00 UTC

Feb-25 @ 00:00 UTC

BECMG 2413/2415 09016KT 9999 FEW035

Becoming

Becoming Conditions expected by Sun, Feb 24, 2019 @ 15:00 UTC

Wind
  • 090° at 16 KTS
Cloud Levels
  • Few at 3,500' AGL

Feb-24@
17:00 UTC

Feb-24 @ 17:00 UTC

Feb-24@
19:00 UTC

Feb-24 @ 19:00 UTC

PROB30 TEMPO 2417/2419 BKN035 FEW040TCU RMK PEM

Temporary - 30% Likelihood

Temporary - 30% Likelihood during this time.

Cloud Levels
  • Broken at 3,500' AGL
  • Few at 4,000' AGL